sensor_id;sensor_type;location;lat;lon;timestamp;temperature;humidity
4985;DHT22;2509;49.902;8.600;2023-06-10T00:01:21;20.40;99.90
4985;DHT22;2509;49.902;8.600;2023-06-10T00:04:25;20.30;99.90
4985;DHT22;2509;49.902;8.600;2023-06-10T00:07:27;20.20;99.90
4985;DHT22;2509;49.902;8.600;2023-06-10T00:10:29;20.10;99.90
4985;DHT22;2509;49.902;8.600;2023-06-10T00:13:31;20.00;99.90
4985;DHT22;2509;49.902;8.600;2023-06-10T00:16:35;20.00;99.90
4985;DHT22;2509;49.902;8.600;2023-06-10T00:19:38;20.00;99.90
4985;DHT22;2509;49.902;8.600;2023-06-10T00:22:42;20.00;99.90
4985;DHT22;2509;49.902;8.600;2023-06-10T00:25:46;20.00;99.90
4985;DHT22;2509;49.902;8.600;2023-06-10T00:28:48;20.00;99.90
4985;DHT22;2509;49.902;8.600;2023-06-10T00:31:49;20.00;99.90
4985;DHT22;2509;49.902;8.600;2023-06-10T00:34:55;20.10;99.90
4985;DHT22;2509;49.902;8.600;2023-06-10T00:37:57;20.10;99.90
4985;DHT22;2509;49.902;8.600;2023-06-10T00:40:59;20.00;99.90
4985;DHT22;2509;49.902;8.600;2023-06-10T00:44:01;19.90;99.90
4985;DHT22;2509;49.902;8.600;2023-06-10T00:47:03;19.80;99.90
4985;DHT22;2509;49.902;8.600;2023-06-10T00:50:08;19.70;99.90
4985;DHT22;2509;49.902;8.600;2023-06-10T00:53:10;19.60;99.90
4985;DHT22;2509;49.902;8.600;2023-06-10T00:56:13;19.60;99.90
4985;DHT22;2509;49.902;8.600;2023-06-10T00:59:15;19.60;99.90
4985;DHT22;2509;49.902;8.600;2023-06-10T01:02:17;19.50;99.90
4985;DHT22;2509;49.902;8.600;2023-06-10T01:05:21;19.50;99.90
4985;DHT22;2509;49.902;8.600;2023-06-10T01:08:31;19.50;99.90
4985;DHT22;2509;49.902;8.600;2023-06-10T01:11:40;19.50;99.90
4985;DHT22;2509;49.902;8.600;2023-06-10T01:14:47;19.50;99.90
4985;DHT22;2509;49.902;8.600;2023-06-10T01:17:55;19.50;99.90
4985;DHT22;2509;49.902;8.600;2023-06-10T01:20:59;19.50;99.90
4985;DHT22;2509;49.902;8.600;2023-06-10T01:24:04;19.50;99.90
4985;DHT22;2509;49.902;8.600;2023-06-10T01:27:12;19.50;99.90
4985;DHT22;2509;49.902;8.600;2023-06-10T01:30:16;19.40;99.90
4985;DHT22;2509;49.902;8.600;2023-06-10T01:33:27;19.40;99.90
4985;DHT22;2509;49.902;8.600;2023-06-10T01:36:29;19.20;99.90
4985;DHT22;2509;49.902;8.600;2023-06-10T01:39:35;19.20;99.90
4985;DHT22;2509;49.902;8.600;2023-06-10T01:42:38;19.20;99.90
4985;DHT22;2509;49.902;8.600;2023-06-10T01:45:40;19.20;99.90
4985;DHT22;2509;49.902;8.600;2023-06-10T01:48:43;19.20;99.90
4985;DHT22;2509;49.902;8.600;2023-06-10T01:51:47;19.10;99.90
4985;DHT22;2509;49.902;8.600;2023-06-10T01:54:51;19.00;99.90
4985;DHT22;2509;49.902;8.600;2023-06-10T01:57:53;19.00;99.90
4985;DHT22;2509;49.902;8.600;2023-06-10T02:00:55;19.00;99.90
4985;DHT22;2509;49.902;8.600;2023-06-10T02:03:57;18.80;99.90
4985;DHT22;2509;49.902;8.600;2023-06-10T02:06:58;18.80;99.90
4985;DHT22;2509;49.902;8.600;2023-06-10T02:10:07;18.90;99.90
4985;DHT22;2509;49.902;8.600;2023-06-10T02:13:09;19.00;99.90
4985;DHT22;2509;49.902;8.600;2023-06-10T02:16:11;19.00;99.90
4985;DHT22;2509;49.902;8.600;2023-06-10T02:19:13;19.00;99.90
4985;DHT22;2509;49.902;8.600;2023-06-10T02:22:15;19.00;99.90
4985;DHT22;2509;49.902;8.600;2023-06-10T02:25:18;18.90;99.90
4985;DHT22;2509;49.902;8.600;2023-06-10T02:28:20;18.80;99.90
4985;DHT22;2509;49.902;8.600;2023-06-10T02:31:22;18.80;99.90
4985;DHT22;2509;49.902;8.600;2023-06-10T02:34:24;18.80;99.90
4985;DHT22;2509;49.902;8.600;2023-06-10T02:37:26;18.80;99.90
4985;DHT22;2509;49.902;8.600;2023-06-10T02:40:30;18.70;99.90
4985;DHT22;2509;49.902;8.600;2023-06-10T02:43:31;18.70;99.90
4985;DHT22;2509;49.902;8.600;2023-06-10T02:46:33;18.70;99.90
4985;DHT22;2509;49.902;8.600;2023-06-10T02:49:35;18.70;99.90
4985;DHT22;2509;49.902;8.600;2023-06-10T02:52:37;18.80;99.90
4985;DHT22;2509;49.902;8.600;2023-06-10T02:55:40;18.80;99.90
4985;DHT22;2509;49.902;8.600;2023-06-10T02:58:42;18.80;99.90
4985;DHT22;2509;49.902;8.600;2023-06-10T03:01:44;18.80;99.90
4985;DHT22;2509;49.902;8.600;2023-06-10T03:04:47;18.70;99.90
4985;DHT22;2509;49.902;8.600;2023-06-10T03:07:50;18.70;99.90
4985;DHT22;2509;49.902;8.600;2023-06-10T03:10:54;18.60;99.90
4985;DHT22;2509;49.902;8.600;2023-06-10T03:13:57;18.60;99.90
4985;DHT22;2509;49.902;8.600;2023-06-10T03:16:58;18.50;99.90
4985;DHT22;2509;49.902;8.600;2023-06-10T03:20:00;18.50;99.90
4985;DHT22;2509;49.902;8.600;2023-06-10T03:23:03;18.40;99.90
4985;DHT22;2509;49.902;8.600;2023-06-10T03:26:06;18.40;99.90
4985;DHT22;2509;49.902;8.600;2023-06-10T03:29:10;18.30;99.90
4985;DHT22;2509;49.902;8.600;2023-06-10T03:32:12;18.20;99.90
4985;DHT22;2509;49.902;8.600;2023-06-10T03:35:13;18.20;99.90
4985;DHT22;2509;49.902;8.600;2023-06-10T03:38:15;18.20;99.90
4985;DHT22;2509;49.902;8.600;2023-06-10T03:41:18;18.20;99.90
4985;DHT22;2509;49.902;8.600;2023-06-10T03:44:21;18.20;99.90
4985;DHT22;2509;49.902;8.600;2023-06-10T03:47:23;18.10;99.90
4985;DHT22;2509;49.902;8.600;2023-06-10T03:50:25;18.10;99.90
4985;DHT22;2509;49.902;8.600;2023-06-10T03:53:26;18.10;99.90
4985;DHT22;2509;49.902;8.600;2023-06-10T03:56:30;18.10;99.90
4985;DHT22;2509;49.902;8.600;2023-06-10T03:59:32;18.10;99.90
4985;DHT22;2509;49.902;8.600;2023-06-10T04:02:34;18.00;99.90
4985;DHT22;2509;49.902;8.600;2023-06-10T04:05:35;18.10;99.90
4985;DHT22;2509;49.902;8.600;2023-06-10T04:08:37;18.10;99.90
4985;DHT22;2509;49.902;8.600;2023-06-10T04:11:41;18.10;99.90
4985;DHT22;2509;49.902;8.600;2023-06-10T04:14:42;18.10;99.90
4985;DHT22;2509;49.902;8.600;2023-06-10T04:17:44;18.00;99.90
4985;DHT22;2509;49.902;8.600;2023-06-10T04:20:46;18.10;99.90
4985;DHT22;2509;49.902;8.600;2023-06-10T04:23:48;18.10;99.90
4985;DHT22;2509;49.902;8.600;2023-06-10T04:26:51;18.00;99.90
4985;DHT22;2509;49.902;8.600;2023-06-10T04:29:53;18.10;99.90
4985;DHT22;2509;49.902;8.600;2023-06-10T04:32:54;17.90;99.90
4985;DHT22;2509;49.902;8.600;2023-06-10T04:35:57;17.90;99.90
4985;DHT22;2509;49.902;8.600;2023-06-10T04:38:59;17.90;99.90
4985;DHT22;2509;49.902;8.600;2023-06-10T04:42:02;18.00;99.90
4985;DHT22;2509;49.902;8.600;2023-06-10T04:45:04;18.00;99.90
4985;DHT22;2509;49.902;8.600;2023-06-10T04:48:06;18.10;99.90
4985;DHT22;2509;49.902;8.600;2023-06-10T04:51:09;18.20;99.90
4985;DHT22;2509;49.902;8.600;2023-06-10T04:54:10;18.30;99.90
4985;DHT22;2509;49.902;8.600;2023-06-10T04:57:13;18.30;99.90
4985;DHT22;2509;49.902;8.600;2023-06-10T05:00:15;18.30;99.90
4985;DHT22;2509;49.902;8.600;2023-06-10T05:03:17;18.30;99.90
4985;DHT22;2509;49.902;8.600;2023-06-10T05:06:19;18.40;99.90
4985;DHT22;2509;49.902;8.600;2023-06-10T05:09:21;18.50;99.90
4985;DHT22;2509;49.902;8.600;2023-06-10T05:12:24;18.60;99.90
4985;DHT22;2509;49.902;8.600;2023-06-10T05:15:26;18.60;99.90
4985;DHT22;2509;49.902;8.600;2023-06-10T05:18:27;18.70;99.90
4985;DHT22;2509;49.902;8.600;2023-06-10T05:21:29;18.80;99.90
4985;DHT22;2509;49.902;8.600;2023-06-10T05:24:31;18.80;99.90
4985;DHT22;2509;49.902;8.600;2023-06-10T05:27:34;18.90;99.90
4985;DHT22;2509;49.902;8.600;2023-06-10T05:30:36;19.00;99.90
4985;DHT22;2509;49.902;8.600;2023-06-10T05:33:38;19.00;99.90
4985;DHT22;2509;49.902;8.600;2023-06-10T05:36:40;19.10;99.90
4985;DHT22;2509;49.902;8.600;2023-06-10T05:39:42;19.20;99.90
4985;DHT22;2509;49.902;8.600;2023-06-10T05:42:45;19.30;99.90
4985;DHT22;2509;49.902;8.600;2023-06-10T05:45:47;19.40;99.90
4985;DHT22;2509;49.902;8.600;2023-06-10T05:48:48;19.50;99.90
4985;DHT22;2509;49.902;8.600;2023-06-10T05:51:50;19.60;99.90
4985;DHT22;2509;49.902;8.600;2023-06-10T05:54:53;19.70;99.90
4985;DHT22;2509;49.902;8.600;2023-06-10T05:58:02;19.80;99.90
4985;DHT22;2509;49.902;8.600;2023-06-10T06:01:04;19.90;99.90
4985;DHT22;2509;49.902;8.600;2023-06-10T06:04:05;20.00;99.90
4985;DHT22;2509;49.902;8.600;2023-06-10T06:07:07;20.10;99.90
4985;DHT22;2509;49.902;8.600;2023-06-10T06:10:09;20.20;99.90
4985;DHT22;2509;49.902;8.600;2023-06-10T06:13:12;20.30;99.90
4985;DHT22;2509;49.902;8.600;2023-06-10T06:16:14;20.50;99.90
4985;DHT22;2509;49.902;8.600;2023-06-10T06:19:16;20.60;99.90
4985;DHT22;2509;49.902;8.600;2023-06-10T06:22:17;20.70;99.90
4985;DHT22;2509;49.902;8.600;2023-06-10T06:25:21;20.80;99.90
4985;DHT22;2509;49.902;8.600;2023-06-10T06:28:24;21.00;99.90
4985;DHT22;2509;49.902;8.600;2023-06-10T06:31:30;21.10;99.90
4985;DHT22;2509;49.902;8.600;2023-06-10T06:34:32;21.30;99.90
4985;DHT22;2509;49.902;8.600;2023-06-10T06:37:34;21.30;99.90
4985;DHT22;2509;49.902;8.600;2023-06-10T06:40:36;21.40;99.90
4985;DHT22;2509;49.902;8.600;2023-06-10T06:43:39;21.60;99.90
4985;DHT22;2509;49.902;8.600;2023-06-10T06:46:40;21.70;99.90
4985;DHT22;2509;49.902;8.600;2023-06-10T06:49:42;21.90;99.90
4985;DHT22;2509;49.902;8.600;2023-06-10T06:52:44;22.10;99.90
4985;DHT22;2509;49.902;8.600;2023-06-10T06:55:46;22.20;99.90
4985;DHT22;2509;49.902;8.600;2023-06-10T06:58:49;22.30;99.90
4985;DHT22;2509;49.902;8.600;2023-06-10T07:01:50;22.40;99.90
4985;DHT22;2509;49.902;8.600;2023-06-10T07:04:54;22.40;99.90
4985;DHT22;2509;49.902;8.600;2023-06-10T07:07:56;22.50;99.90
4985;DHT22;2509;49.902;8.600;2023-06-10T07:10:58;22.70;99.90
4985;DHT22;2509;49.902;8.600;2023-06-10T07:14:01;22.90;99.90
4985;DHT22;2509;49.902;8.600;2023-06-10T07:17:03;22.90;99.90
4985;DHT22;2509;49.902;8.600;2023-06-10T07:20:05;23.00;99.90
4985;DHT22;2509;49.902;8.600;2023-06-10T07:23:07;23.10;99.90
4985;DHT22;2509;49.902;8.600;2023-06-10T07:26:09;23.30;99.90
4985;DHT22;2509;49.902;8.600;2023-06-10T07:29:12;23.40;99.90
4985;DHT22;2509;49.902;8.600;2023-06-10T07:32:14;23.50;99.90
4985;DHT22;2509;49.902;8.600;2023-06-10T07:35:16;23.70;99.90
4985;DHT22;2509;49.902;8.600;2023-06-10T07:38:24;23.90;99.90
4985;DHT22;2509;49.902;8.600;2023-06-10T07:41:26;24.00;99.90
4985;DHT22;2509;49.902;8.600;2023-06-10T07:44:29;24.20;99.90
4985;DHT22;2509;49.902;8.600;2023-06-10T07:47:32;24.40;99.90
4985;DHT22;2509;49.902;8.600;2023-06-10T07:50:35;24.50;99.90
4985;DHT22;2509;49.902;8.600;2023-06-10T07:53:36;24.70;99.90
4985;DHT22;2509;49.902;8.600;2023-06-10T07:56:38;24.60;99.90
4985;DHT22;2509;49.902;8.600;2023-06-10T07:59:41;24.60;99.90
4985;DHT22;2509;49.902;8.600;2023-06-10T08:02:44;24.70;99.90
4985;DHT22;2509;49.902;8.600;2023-06-10T08:05:46;24.90;99.90
4985;DHT22;2509;49.902;8.600;2023-06-10T08:08:48;25.00;99.90
4985;DHT22;2509;49.902;8.600;2023-06-10T08:11:49;25.20;99.90
4985;DHT22;2509;49.902;8.600;2023-06-10T08:14:52;25.30;99.90
4985;DHT22;2509;49.902;8.600;2023-06-10T08:17:55;25.40;99.90
4985;DHT22;2509;49.902;8.600;2023-06-10T08:20:57;25.60;99.00
4985;DHT22;2509;49.902;8.600;2023-06-10T08:23:59;25.60;99.10
4985;DHT22;2509;49.902;8.600;2023-06-10T08:27:01;25.80;99.90
4985;DHT22;2509;49.902;8.600;2023-06-10T08:30:05;25.90;99.20
4985;DHT22;2509;49.902;8.600;2023-06-10T08:33:08;26.20;98.80
4985;DHT22;2509;49.902;8.600;2023-06-10T08:36:10;26.30;98.70
4985;DHT22;2509;49.902;8.600;2023-06-10T08:39:12;26.40;99.30
4985;DHT22;2509;49.902;8.600;2023-06-10T08:42:19;26.60;97.70
4985;DHT22;2509;49.902;8.600;2023-06-10T08:45:24;26.70;98.50
4985;DHT22;2509;49.902;8.600;2023-06-10T08:48:30;26.90;97.30
4985;DHT22;2509;49.902;8.600;2023-06-10T08:51:32;27.20;97.00
4985;DHT22;2509;49.902;8.600;2023-06-10T08:54:37;27.20;95.30
4985;DHT22;2509;49.902;8.600;2023-06-10T08:57:41;27.20;96.00
4985;DHT22;2509;49.902;8.600;2023-06-10T09:00:44;27.30;96.30
4985;DHT22;2509;49.902;8.600;2023-06-10T09:03:47;27.50;94.70
4985;DHT22;2509;49.902;8.600;2023-06-10T09:06:49;27.50;95.10
4985;DHT22;2509;49.902;8.600;2023-06-10T09:09:53;27.50;94.60
4985;DHT22;2509;49.902;8.600;2023-06-10T09:12:56;27.80;92.50
4985;DHT22;2509;49.902;8.600;2023-06-10T09:15:59;28.00;93.10
4985;DHT22;2509;49.902;8.600;2023-06-10T09:19:02;28.10;92.50
4985;DHT22;2509;49.902;8.600;2023-06-10T09:22:08;28.00;92.80
4985;DHT22;2509;49.902;8.600;2023-06-10T09:25:11;28.10;94.20
4985;DHT22;2509;49.902;8.600;2023-06-10T09:28:15;28.30;93.40
4985;DHT22;2509;49.902;8.600;2023-06-10T09:31:18;28.60;91.80
4985;DHT22;2509;49.902;8.600;2023-06-10T09:34:25;28.60;91.30
4985;DHT22;2509;49.902;8.600;2023-06-10T09:37:27;28.80;91.80
4985;DHT22;2509;49.902;8.600;2023-06-10T09:40:28;28.90;91.20
4985;DHT22;2509;49.902;8.600;2023-06-10T09:43:40;29.10;90.30
4985;DHT22;2509;49.902;8.600;2023-06-10T09:46:45;29.20;86.30
4985;DHT22;2509;49.902;8.600;2023-06-10T09:49:47;29.30;85.00
4985;DHT22;2509;49.902;8.600;2023-06-10T09:52:50;29.40;85.50
4985;DHT22;2509;49.902;8.600;2023-06-10T09:55:53;29.50;84.70
4985;DHT22;2509;49.902;8.600;2023-06-10T09:58:55;29.70;83.90
4985;DHT22;2509;49.902;8.600;2023-06-10T10:01:58;29.70;87.90
4985;DHT22;2509;49.902;8.600;2023-06-10T10:05:02;29.60;86.90
4985;DHT22;2509;49.902;8.600;2023-06-10T10:08:04;29.60;88.20
4985;DHT22;2509;49.902;8.600;2023-06-10T10:11:06;29.70;88.00
4985;DHT22;2509;49.902;8.600;2023-06-10T10:14:09;29.80;87.30
4985;DHT22;2509;49.902;8.600;2023-06-10T10:17:15;29.80;87.70
4985;DHT22;2509;49.902;8.600;2023-06-10T10:20:20;30.00;87.60
4985;DHT22;2509;49.902;8.600;2023-06-10T10:23:26;30.10;88.00
4985;DHT22;2509;49.902;8.600;2023-06-10T10:26:31;30.30;86.60
4985;DHT22;2509;49.902;8.600;2023-06-10T10:29:38;30.50;84.80
4985;DHT22;2509;49.902;8.600;2023-06-10T10:32:50;30.70;86.00
4985;DHT22;2509;49.902;8.600;2023-06-10T10:35:53;30.60;84.60
4985;DHT22;2509;49.902;8.600;2023-06-10T10:38:56;30.80;85.60
4985;DHT22;2509;49.902;8.600;2023-06-10T10:41:59;31.10;84.70
4985;DHT22;2509;49.902;8.600;2023-06-10T10:45:02;31.20;81.30
4985;DHT22;2509;49.902;8.600;2023-06-10T10:48:09;31.30;83.50
4985;DHT22;2509;49.902;8.600;2023-06-10T10:51:12;31.20;86.20
4985;DHT22;2509;49.902;8.600;2023-06-10T10:54:17;31.20;85.00
4985;DHT22;2509;49.902;8.600;2023-06-10T10:57:20;31.30;79.30
4985;DHT22;2509;49.902;8.600;2023-06-10T11:00:27;31.50;78.90
4985;DHT22;2509;49.902;8.600;2023-06-10T11:03:42;31.60;79.60
4985;DHT22;2509;49.902;8.600;2023-06-10T11:06:52;31.60;79.10
4985;DHT22;2509;49.902;8.600;2023-06-10T11:10:00;31.80;79.80
4985;DHT22;2509;49.902;8.600;2023-06-10T11:13:07;32.00;79.40
4985;DHT22;2509;49.902;8.600;2023-06-10T11:16:09;32.20;81.50
4985;DHT22;2509;49.902;8.600;2023-06-10T11:22:58;32.50;80.70
4985;DHT22;2509;49.902;8.600;2023-06-10T11:26:17;32.30;79.80
4985;DHT22;2509;49.902;8.600;2023-06-10T11:29:20;32.40;79.00
4985;DHT22;2509;49.902;8.600;2023-06-10T11:32:22;33.10;79.90
4985;DHT22;2509;49.902;8.600;2023-06-10T11:35:24;33.60;77.50
4985;DHT22;2509;49.902;8.600;2023-06-10T11:38:28;34.00;77.20
4985;DHT22;2509;49.902;8.600;2023-06-10T11:41:31;34.30;74.10
4985;DHT22;2509;49.902;8.600;2023-06-10T11:44:33;34.30;71.80
4985;DHT22;2509;49.902;8.600;2023-06-10T11:47:38;34.50;72.60
4985;DHT22;2509;49.902;8.600;2023-06-10T11:50:39;34.90;74.10
4985;DHT22;2509;49.902;8.600;2023-06-10T11:53:45;34.70;69.50
4985;DHT22;2509;49.902;8.600;2023-06-10T11:56:47;34.70;70.30
4985;DHT22;2509;49.902;8.600;2023-06-10T11:59:49;34.50;69.80
4985;DHT22;2509;49.902;8.600;2023-06-10T12:02:56;34.70;71.80
4985;DHT22;2509;49.902;8.600;2023-06-10T12:05:59;34.80;68.80
4985;DHT22;2509;49.902;8.600;2023-06-10T12:09:02;34.70;68.00
4985;DHT22;2509;49.902;8.600;2023-06-10T12:12:05;35.20;69.00
4985;DHT22;2509;49.902;8.600;2023-06-10T12:15:09;34.70;69.60
4985;DHT22;2509;49.902;8.600;2023-06-10T12:18:16;34.60;68.50
4985;DHT22;2509;49.902;8.600;2023-06-10T12:21:19;34.90;66.50
4985;DHT22;2509;49.902;8.600;2023-06-10T12:24:23;35.00;66.50
4985;DHT22;2509;49.902;8.600;2023-06-10T12:27:24;34.70;66.10
4985;DHT22;2509;49.902;8.600;2023-06-10T12:30:27;34.70;66.70
4985;DHT22;2509;49.902;8.600;2023-06-10T12:33:29;34.80;67.70
4985;DHT22;2509;49.902;8.600;2023-06-10T12:36:31;34.90;68.30
4985;DHT22;2509;49.902;8.600;2023-06-10T12:39:34;35.50;67.20
4985;DHT22;2509;49.902;8.600;2023-06-10T12:42:36;35.90;66.20
4985;DHT22;2509;49.902;8.600;2023-06-10T12:45:40;35.00;66.20
4985;DHT22;2509;49.902;8.600;2023-06-10T12:48:49;35.10;67.70
4985;DHT22;2509;49.902;8.600;2023-06-10T12:51:52;35.30;67.10
4985;DHT22;2509;49.902;8.600;2023-06-10T12:54:56;35.50;67.30
4985;DHT22;2509;49.902;8.600;2023-06-10T12:57:59;35.30;67.00
4985;DHT22;2509;49.902;8.600;2023-06-10T13:01:02;35.80;68.70
4985;DHT22;2509;49.902;8.600;2023-06-10T13:04:05;36.10;64.50
4985;DHT22;2509;49.902;8.600;2023-06-10T13:07:08;36.60;65.50
4985;DHT22;2509;49.902;8.600;2023-06-10T13:10:12;36.60;66.10
4985;DHT22;2509;49.902;8.600;2023-06-10T13:13:14;36.90;65.70
4985;DHT22;2509;49.902;8.600;2023-06-10T13:16:16;36.70;64.50
4985;DHT22;2509;49.902;8.600;2023-06-10T13:19:18;36.70;63.00
4985;DHT22;2509;49.902;8.600;2023-06-10T13:22:22;35.90;62.60
4985;DHT22;2509;49.902;8.600;2023-06-10T13:25:25;35.80;63.20
4985;DHT22;2509;49.902;8.600;2023-06-10T13:28:27;36.10;63.10
4985;DHT22;2509;49.902;8.600;2023-06-10T13:31:29;36.60;64.00
4985;DHT22;2509;49.902;8.600;2023-06-10T13:34:32;36.90;62.90
4985;DHT22;2509;49.902;8.600;2023-06-10T13:37:34;37.10;63.90
4985;DHT22;2509;49.902;8.600;2023-06-10T13:40:38;37.20;64.90
4985;DHT22;2509;49.902;8.600;2023-06-10T13:47:37;37.10;65.20
4985;DHT22;2509;49.902;8.600;2023-06-10T13:50:38;37.60;64.40
4985;DHT22;2509;49.902;8.600;2023-06-10T13:53:40;37.30;63.20
4985;DHT22;2509;49.902;8.600;2023-06-10T13:56:44;37.00;64.60
4985;DHT22;2509;49.902;8.600;2023-06-10T13:59:46;36.90;64.40
4985;DHT22;2509;49.902;8.600;2023-06-10T14:02:48;36.70;65.60
4985;DHT22;2509;49.902;8.600;2023-06-10T14:05:50;37.20;65.10
4985;DHT22;2509;49.902;8.600;2023-06-10T14:08:52;37.50;66.10
4985;DHT22;2509;49.902;8.600;2023-06-10T14:11:56;38.00;64.00
4985;DHT22;2509;49.902;8.600;2023-06-10T14:14:58;36.60;64.70
4985;DHT22;2509;49.902;8.600;2023-06-10T14:17:59;37.10;65.00
4985;DHT22;2509;49.902;8.600;2023-06-10T14:21:01;37.60;63.80
4985;DHT22;2509;49.902;8.600;2023-06-10T14:24:03;37.80;64.60
4985;DHT22;2509;49.902;8.600;2023-06-10T14:27:07;36.70;64.70
4985;DHT22;2509;49.902;8.600;2023-06-10T14:30:09;36.90;66.70
4985;DHT22;2509;49.902;8.600;2023-06-10T14:33:11;37.40;65.50
4985;DHT22;2509;49.902;8.600;2023-06-10T14:36:12;38.20;65.40
4985;DHT22;2509;49.902;8.600;2023-06-10T14:39:14;38.50;64.50
4985;DHT22;2509;49.902;8.600;2023-06-10T14:42:17;38.00;64.40
4985;DHT22;2509;49.902;8.600;2023-06-10T14:45:19;37.20;66.20
4985;DHT22;2509;49.902;8.600;2023-06-10T14:48:21;37.80;65.70
4985;DHT22;2509;49.902;8.600;2023-06-10T14:51:23;36.80;66.80
4985;DHT22;2509;49.902;8.600;2023-06-10T14:54:24;36.20;69.10
4985;DHT22;2509;49.902;8.600;2023-06-10T14:57:27;36.20;68.30
4985;DHT22;2509;49.902;8.600;2023-06-10T15:00:29;36.10;68.60
4985;DHT22;2509;49.902;8.600;2023-06-10T15:03:31;35.20;69.80
4985;DHT22;2509;49.902;8.600;2023-06-10T15:06:32;34.20;71.40
4985;DHT22;2509;49.902;8.600;2023-06-10T15:09:35;33.60;71.60
4985;DHT22;2509;49.902;8.600;2023-06-10T15:12:38;33.20;71.80
4985;DHT22;2509;49.902;8.600;2023-06-10T15:15:39;32.90;70.90
4985;DHT22;2509;49.902;8.600;2023-06-10T15:18:42;33.90;70.60
4985;DHT22;2509;49.902;8.600;2023-06-10T15:21:43;34.20;71.00
4985;DHT22;2509;49.902;8.600;2023-06-10T15:24:45;34.00;72.70
4985;DHT22;2509;49.902;8.600;2023-06-10T15:27:48;34.70;71.50
4985;DHT22;2509;49.902;8.600;2023-06-10T15:30:50;34.90;68.70
4985;DHT22;2509;49.902;8.600;2023-06-10T15:33:52;35.30;69.70
4985;DHT22;2509;49.902;8.600;2023-06-10T15:36:54;36.10;68.80
4985;DHT22;2509;49.902;8.600;2023-06-10T15:39:55;35.90;68.30
4985;DHT22;2509;49.902;8.600;2023-06-10T15:42:58;36.20;68.60
4985;DHT22;2509;49.902;8.600;2023-06-10T15:46:00;36.20;68.10
4985;DHT22;2509;49.902;8.600;2023-06-10T15:49:02;36.00;68.10
4985;DHT22;2509;49.902;8.600;2023-06-10T15:52:04;36.30;68.50
4985;DHT22;2509;49.902;8.600;2023-06-10T15:55:07;36.50;67.30
4985;DHT22;2509;49.902;8.600;2023-06-10T15:58:10;35.50;68.60
4985;DHT22;2509;49.902;8.600;2023-06-10T16:01:12;34.90;69.00
4985;DHT22;2509;49.902;8.600;2023-06-10T16:04:14;34.30;70.90
4985;DHT22;2509;49.902;8.600;2023-06-10T16:07:16;34.10;70.80
4985;DHT22;2509;49.902;8.600;2023-06-10T16:10:18;33.90;71.20
4985;DHT22;2509;49.902;8.600;2023-06-10T16:13:21;33.80;71.30
4985;DHT22;2509;49.902;8.600;2023-06-10T16:16:23;33.40;71.40
4985;DHT22;2509;49.902;8.600;2023-06-10T16:19:25;33.30;70.90
4985;DHT22;2509;49.902;8.600;2023-06-10T16:22:26;33.10;71.90
4985;DHT22;2509;49.902;8.600;2023-06-10T16:25:28;32.80;73.20
4985;DHT22;2509;49.902;8.600;2023-06-10T16:28:31;32.30;74.70
4985;DHT22;2509;49.902;8.600;2023-06-10T16:31:33;32.00;74.10
4985;DHT22;2509;49.902;8.600;2023-06-10T16:34:37;31.70;74.70
4985;DHT22;2509;49.902;8.600;2023-06-10T16:37:38;31.60;73.80
4985;DHT22;2509;49.902;8.600;2023-06-10T16:40:40;31.70;73.90
4985;DHT22;2509;49.902;8.600;2023-06-10T16:43:43;31.70;74.10
4985;DHT22;2509;49.902;8.600;2023-06-10T16:46:45;31.40;75.50
4985;DHT22;2509;49.902;8.600;2023-06-10T16:49:47;31.10;75.90
4985;DHT22;2509;49.902;8.600;2023-06-10T16:52:48;31.00;76.10
4985;DHT22;2509;49.902;8.600;2023-06-10T16:55:50;30.80;76.10
4985;DHT22;2509;49.902;8.600;2023-06-10T16:58:53;30.60;76.50
4985;DHT22;2509;49.902;8.600;2023-06-10T17:01:55;30.20;77.10
4985;DHT22;2509;49.902;8.600;2023-06-10T17:04:57;30.20;77.50
4985;DHT22;2509;49.902;8.600;2023-06-10T17:07:59;30.20;77.40
4985;DHT22;2509;49.902;8.600;2023-06-10T17:11:00;30.20;77.70
4985;DHT22;2509;49.902;8.600;2023-06-10T17:14:04;30.20;78.40
4985;DHT22;2509;49.902;8.600;2023-06-10T17:17:06;30.10;77.60
4985;DHT22;2509;49.902;8.600;2023-06-10T17:20:08;30.00;78.40
4985;DHT22;2509;49.902;8.600;2023-06-10T17:23:10;30.00;79.20
4985;DHT22;2509;49.902;8.600;2023-06-10T17:26:12;30.00;81.10
4985;DHT22;2509;49.902;8.600;2023-06-10T17:29:15;29.70;81.90
4985;DHT22;2509;49.902;8.600;2023-06-10T17:32:17;29.60;82.30
4985;DHT22;2509;49.902;8.600;2023-06-10T17:35:19;29.40;82.60
4985;DHT22;2509;49.902;8.600;2023-06-10T17:38:20;27.30;92.10
4985;DHT22;2509;49.902;8.600;2023-06-10T17:41:22;26.40;95.10
4985;DHT22;2509;49.902;8.600;2023-06-10T17:44:25;26.20;94.80
4985;DHT22;2509;49.902;8.600;2023-06-10T17:47:28;26.10;96.30
4985;DHT22;2509;49.902;8.600;2023-06-10T17:50:30;26.10;95.90
4985;DHT22;2509;49.902;8.600;2023-06-10T17:53:32;26.10;98.00
4985;DHT22;2509;49.902;8.600;2023-06-10T17:56:34;26.10;96.30
4985;DHT22;2509;49.902;8.600;2023-06-10T17:59:37;26.30;95.80
4985;DHT22;2509;49.902;8.600;2023-06-10T18:02:38;26.30;95.90
4985;DHT22;2509;49.902;8.600;2023-06-10T18:05:40;26.20;97.10
4985;DHT22;2509;49.902;8.600;2023-06-10T18:08:42;26.20;96.60
4985;DHT22;2509;49.902;8.600;2023-06-10T18:11:44;26.20;96.60
4985;DHT22;2509;49.902;8.600;2023-06-10T18:14:47;26.20;97.40
4985;DHT22;2509;49.902;8.600;2023-06-10T18:17:49;26.20;97.20
4985;DHT22;2509;49.902;8.600;2023-06-10T18:20:50;26.20;97.50
4985;DHT22;2509;49.902;8.600;2023-06-10T18:23:52;26.10;98.20
4985;DHT22;2509;49.902;8.600;2023-06-10T18:26:54;26.10;98.70
4985;DHT22;2509;49.902;8.600;2023-06-10T18:29:57;26.10;99.20
4985;DHT22;2509;49.902;8.600;2023-06-10T18:32:58;26.00;98.20
4985;DHT22;2509;49.902;8.600;2023-06-10T18:36:00;26.00;99.20
4985;DHT22;2509;49.902;8.600;2023-06-10T18:39:02;25.90;99.90
4985;DHT22;2509;49.902;8.600;2023-06-10T18:42:05;25.80;99.60
4985;DHT22;2509;49.902;8.600;2023-06-10T18:45:09;25.70;99.90
4985;DHT22;2509;49.902;8.600;2023-06-10T18:48:11;25.70;99.90
4985;DHT22;2509;49.902;8.600;2023-06-10T18:51:13;25.60;99.90
4985;DHT22;2509;49.902;8.600;2023-06-10T18:54:15;25.50;99.90
4985;DHT22;2509;49.902;8.600;2023-06-10T18:57:17;25.50;99.90
4985;DHT22;2509;49.902;8.600;2023-06-10T19:00:20;25.40;99.90
4985;DHT22;2509;49.902;8.600;2023-06-10T19:03:22;25.40;99.90
4985;DHT22;2509;49.902;8.600;2023-06-10T19:06:24;25.30;99.90
4985;DHT22;2509;49.902;8.600;2023-06-10T19:09:26;25.30;99.90
4985;DHT22;2509;49.902;8.600;2023-06-10T19:12:27;25.20;99.90
4985;DHT22;2509;49.902;8.600;2023-06-10T19:15:30;25.20;99.90
4985;DHT22;2509;49.902;8.600;2023-06-10T19:18:32;25.20;99.90
4985;DHT22;2509;49.902;8.600;2023-06-10T19:21:34;25.20;99.90
4985;DHT22;2509;49.902;8.600;2023-06-10T19:24:36;25.10;99.90
4985;DHT22;2509;49.902;8.600;2023-06-10T19:27:38;25.10;99.90
4985;DHT22;2509;49.902;8.600;2023-06-10T19:30:42;25.00;99.90
4985;DHT22;2509;49.902;8.600;2023-06-10T19:33:44;25.00;99.90
4985;DHT22;2509;49.902;8.600;2023-06-10T19:36:46;25.00;99.90
4985;DHT22;2509;49.902;8.600;2023-06-10T19:39:47;25.00;99.90
4985;DHT22;2509;49.902;8.600;2023-06-10T19:42:49;24.90;99.90
4985;DHT22;2509;49.902;8.600;2023-06-10T19:45:52;24.90;99.90
4985;DHT22;2509;49.902;8.600;2023-06-10T19:48:54;24.80;99.90
4985;DHT22;2509;49.902;8.600;2023-06-10T19:51:58;24.70;99.90
4985;DHT22;2509;49.902;8.600;2023-06-10T19:55:06;24.60;99.90
4985;DHT22;2509;49.902;8.600;2023-06-10T19:58:08;24.50;99.90
4985;DHT22;2509;49.902;8.600;2023-06-10T20:01:12;24.50;99.90